SCOP weather

Pilauco Airport
Osorno, Los Lagos Region, Chile

Public forecast

Using degrees Celsius for public forecast. Weather courtesy of forecast.io.

METAR (pilot weather report)

Report is more than 2 hours old.

Closest report is Cañal Bajo Carlos - Hott Siebert Airport, 4.0 nm (7.5 km) SE. Retrieved 2019/07/19 22:00 UTC (5 hours ago):

SCJO 192200Z 02005KT 9999 SCT050 OVC120 07/05 Q1013

TAF (pilot weather forecast)

Forecast is more than 12 hours old.

Closest forecast is Cañal Bajo Carlos - Hott Siebert Airport, 4.0 nm (7.5 km) SE. Retrieved 2019/07/19 12:33 UTC (14 hours ago):

TAF SCJO 191105Z 1912/1924 29015G25KT 6000 RA BKN010 OVC025 TX10/1912Z TN05/1924Z BECMG 1914/1916 28012KT 8000 RA SCT025 OVC035 BECMG 1919/1921 9999 NSW SCT030 BECMG 1922/1924 35005KT